Iwo, Nigeria
Current Conditions -  °F | °C
As of 10:00 AM on Monday 20 Oct 2014 (Local Time) from DBBB Reporting Station
Broken Clouds Broken Clouds  
Wind Chill: 81°   Ceiling: 9000
Heat Index: 88°   Visibility: 6mi
Dew Point: 79°   Wind: 7mph
Humidity: 94%   Direction: 30°NNE
Pressure: 29.91"   Gusts: NA
Location:  7.63°N, 4.18°E
Report Text: DBBB 200900Z 03006KT 350V060 9999 SCT012 BKN090 27/26 Q1013 NOSIG
Loading
Personal Weather Stations






























Interactive Weather Map
Tropical Storm Tracking
New forecast layout! Learn more

10-Day Weather Forecast

Advertisements
Track Severe Weather on mobile